createdAt,value
2018-09-05T00:01:44.383Z,99.90
2018-09-05T00:04:11.948Z,99.90
2018-09-05T00:06:39.562Z,99.90
2018-09-05T00:09:08.230Z,99.90
2018-09-05T00:11:36.384Z,99.90
2018-09-05T00:14:04.048Z,99.90
2018-09-05T00:16:31.611Z,99.90
2018-09-05T00:18:59.627Z,99.90
2018-09-05T00:21:27.393Z,99.90
2018-09-05T00:23:55.266Z,99.90
2018-09-05T00:26:22.969Z,99.90
2018-09-05T00:28:50.720Z,99.90
2018-09-05T00:31:18.500Z,99.90
2018-09-05T00:33:46.230Z,99.90
2018-09-05T00:36:14.070Z,99.90
2018-09-05T00:38:41.970Z,99.90
2018-09-05T00:41:09.866Z,99.90
2018-09-05T00:43:37.865Z,99.90
2018-09-05T00:46:05.786Z,99.90
2018-09-05T00:48:33.739Z,99.90
2018-09-05T00:51:01.632Z,99.90
2018-09-05T00:53:29.574Z,99.90
2018-09-05T00:55:57.439Z,99.90
2018-09-05T00:58:25.275Z,99.90
2018-09-05T01:00:53.228Z,99.90
2018-09-05T01:03:21.223Z,99.90
2018-09-05T01:05:49.084Z,99.90
2018-09-05T01:08:17.009Z,99.90
2018-09-05T01:10:44.876Z,99.90
2018-09-05T01:13:12.787Z,99.90
2018-09-05T01:15:41.204Z,99.90
2018-09-05T01:18:09.347Z,99.90
2018-09-05T01:20:37.542Z,99.90
2018-09-05T01:23:05.473Z,99.90
2018-09-05T01:25:33.293Z,99.90
2018-09-05T01:28:01.194Z,99.90
2018-09-05T01:30:29.266Z,99.90
2018-09-05T01:32:58.243Z,99.90
2018-09-05T01:35:26.517Z,99.90
2018-09-05T01:37:54.579Z,99.90
2018-09-05T01:40:22.410Z,99.90
2018-09-05T01:42:50.371Z,99.90
2018-09-05T01:45:18.210Z,99.90
2018-09-05T01:47:46.014Z,99.90
2018-09-05T01:50:13.895Z,99.90
2018-09-05T01:52:41.662Z,99.90
2018-09-05T01:55:09.748Z,99.90
2018-09-05T01:57:37.729Z,99.90
2018-09-05T02:00:10.029Z,99.90
2018-09-05T02:02:37.894Z,99.90
2018-09-05T02:05:05.915Z,99.90
2018-09-05T02:07:33.796Z,99.90
2018-09-05T02:10:01.630Z,99.90
2018-09-05T02:12:29.782Z,99.90
2018-09-05T02:14:57.574Z,99.90
2018-09-05T02:17:25.447Z,99.90
2018-09-05T02:19:53.354Z,99.90
2018-09-05T02:22:21.242Z,99.90
2018-09-05T02:24:49.187Z,99.90
2018-09-05T02:27:17.198Z,99.90
2018-09-05T02:29:45.079Z,99.90
2018-09-05T02:32:13.042Z,99.90
2018-09-05T02:34:40.973Z,99.90
2018-09-05T02:37:08.882Z,99.90
2018-09-05T02:39:36.816Z,99.90
2018-09-05T02:42:04.715Z,99.90
2018-09-05T02:44:32.767Z,99.90
2018-09-05T02:47:00.694Z,99.90
2018-09-05T02:49:28.593Z,99.90
2018-09-05T02:51:56.485Z,99.90
2018-09-05T02:54:24.418Z,99.90
2018-09-05T02:56:52.237Z,99.90
2018-09-05T02:59:20.375Z,99.90
2018-09-05T03:01:48.259Z,99.90
2018-09-05T03:04:16.142Z,99.90
2018-09-05T03:06:44.397Z,99.90
2018-09-05T03:09:12.376Z,99.90
2018-09-05T03:11:40.758Z,99.90
2018-09-05T03:14:08.618Z,99.90
2018-09-05T03:16:36.567Z,99.90
2018-09-05T03:19:04.614Z,99.90
2018-09-05T03:21:32.588Z,99.90
2018-09-05T03:24:00.475Z,99.90
2018-09-05T03:26:28.323Z,99.90
2018-09-05T03:28:56.203Z,99.90
2018-09-05T03:31:24.092Z,99.90
2018-09-05T03:33:51.994Z,99.90
2018-09-05T03:36:20.054Z,99.90
2018-09-05T03:38:47.967Z,99.90
2018-09-05T03:41:16.171Z,99.90
2018-09-05T03:43:44.614Z,99.90
2018-09-05T03:46:12.601Z,99.90
2018-09-05T03:48:40.484Z,99.90
2018-09-05T03:51:08.414Z,99.90
2018-09-05T03:53:36.994Z,99.90
2018-09-05T03:56:05.056Z,99.90
2018-09-05T03:58:33.021Z,99.90
2018-09-05T04:01:00.971Z,99.90
2018-09-05T04:03:28.876Z,99.90
2018-09-05T04:05:56.875Z,99.90
2018-09-05T04:08:24.903Z,99.90
2018-09-05T04:10:52.795Z,99.90
2018-09-05T04:13:20.666Z,99.90
2018-09-05T04:15:48.493Z,99.90
2018-09-05T04:18:16.540Z,99.90
2018-09-05T04:20:44.481Z,99.90
2018-09-05T04:23:12.470Z,99.90
2018-09-05T04:25:40.415Z,99.90
2018-09-05T04:28:08.270Z,99.90
2018-09-05T04:30:36.081Z,99.90
2018-09-05T04:33:04.074Z,99.90
2018-09-05T04:35:32.024Z,99.90
2018-09-05T04:38:00.015Z,99.90
2018-09-05T04:40:27.986Z,99.90
2018-09-05T04:42:55.858Z,99.90
2018-09-05T04:45:23.787Z,99.90
2018-09-05T04:47:51.682Z,99.90
2018-09-05T04:50:19.761Z,99.90
2018-09-05T04:52:47.794Z,99.90
2018-09-05T04:55:15.697Z,99.90
2018-09-05T04:57:43.611Z,99.90
2018-09-05T05:00:11.580Z,99.90
2018-09-05T05:02:39.539Z,99.90
2018-09-05T05:05:07.491Z,99.90
2018-09-05T05:07:35.489Z,99.90
2018-09-05T05:10:03.456Z,99.90
2018-09-05T05:12:31.264Z,99.90
2018-09-05T05:14:59.393Z,99.90
2018-09-05T05:17:27.301Z,99.90
2018-09-05T05:19:55.137Z,99.90
2018-09-05T05:22:23.117Z,99.90
2018-09-05T05:24:50.979Z,99.90
2018-09-05T05:27:18.962Z,99.90
2018-09-05T05:29:46.810Z,99.90
2018-09-05T05:32:14.827Z,99.90
2018-09-05T05:34:42.677Z,99.90
2018-09-05T05:37:10.532Z,99.90
2018-09-05T05:39:38.382Z,99.90
2018-09-05T05:42:06.422Z,99.90
2018-09-05T05:44:34.695Z,99.90
2018-09-05T05:47:02.472Z,99.90
2018-09-05T05:49:30.278Z,99.90
2018-09-05T05:51:58.274Z,99.90
2018-09-05T05:54:26.170Z,99.90
2018-09-05T05:56:54.127Z,99.90
2018-09-05T05:59:22.042Z,99.90
2018-09-05T06:01:50.024Z,99.90
2018-09-05T06:04:18.003Z,99.90
2018-09-05T06:06:45.882Z,99.90
2018-09-05T06:09:13.699Z,99.90
2018-09-05T06:11:41.711Z,99.90
2018-09-05T06:14:09.630Z,99.90
2018-09-05T06:16:37.513Z,99.90
2018-09-05T06:19:05.389Z,99.90
2018-09-05T06:21:33.250Z,99.90
2018-09-05T06:24:01.188Z,99.90
2018-09-05T06:26:28.927Z,99.90
2018-09-05T06:28:56.867Z,99.90
2018-09-05T06:31:24.733Z,99.90
2018-09-05T06:33:52.597Z,99.90
2018-09-05T06:36:20.470Z,99.90
2018-09-05T06:38:48.339Z,99.90
2018-09-05T06:41:16.219Z,99.90
2018-09-05T06:43:44.100Z,99.90
2018-09-05T06:46:11.951Z,99.90
2018-09-05T06:48:40.193Z,99.90
2018-09-05T06:51:08.128Z,99.90
2018-09-05T06:53:37.513Z,99.90
2018-09-05T06:56:05.325Z,99.90
2018-09-05T06:58:33.698Z,99.90
2018-09-05T07:01:01.645Z,99.90
2018-09-05T07:03:29.671Z,99.90
2018-09-05T07:05:57.715Z,99.90
2018-09-05T07:08:25.600Z,99.90
2018-09-05T07:10:53.490Z,99.90
2018-09-05T07:13:21.341Z,99.90
2018-09-05T07:15:49.486Z,99.90
2018-09-05T07:18:17.243Z,99.90
2018-09-05T07:20:45.327Z,99.90
2018-09-05T07:23:13.131Z,99.90
2018-09-05T07:25:41.156Z,99.90
2018-09-05T07:28:09.073Z,99.90
2018-09-05T07:30:37.034Z,99.90
2018-09-05T07:33:04.958Z,99.90
2018-09-05T07:35:32.838Z,99.90
2018-09-05T07:38:00.726Z,99.90
2018-09-05T07:40:28.856Z,99.90
2018-09-05T07:42:56.758Z,99.90
2018-09-05T07:45:24.552Z,99.90
2018-09-05T07:47:52.399Z,99.90
2018-09-05T07:50:20.139Z,99.90
2018-09-05T07:52:48.018Z,99.90
2018-09-05T07:55:15.963Z,99.90
2018-09-05T07:57:43.906Z,99.90
2018-09-05T08:00:11.905Z,99.90
2018-09-05T08:02:39.787Z,99.90
2018-09-05T08:05:07.827Z,99.90
2018-09-05T08:07:35.717Z,99.90
2018-09-05T08:10:03.722Z,99.90
2018-09-05T08:12:31.726Z,99.90
2018-09-05T08:14:59.720Z,99.90
2018-09-05T08:17:27.555Z,99.90
2018-09-05T08:19:55.487Z,99.90
2018-09-05T08:22:23.289Z,99.90
2018-09-05T08:24:51.282Z,99.90
2018-09-05T08:27:22.047Z,99.90
2018-09-05T08:29:50.535Z,99.90
2018-09-05T08:32:18.334Z,99.90
2018-09-05T08:34:46.315Z,99.90
2018-09-05T08:37:14.241Z,99.90
2018-09-05T08:39:42.094Z,99.90
2018-09-05T08:42:10.265Z,99.90
2018-09-05T08:44:38.482Z,99.90
2018-09-05T08:47:06.234Z,99.90
2018-09-05T08:49:34.037Z,99.90
2018-09-05T08:52:01.991Z,99.90
2018-09-05T08:54:29.875Z,99.90
2018-09-05T08:56:58.120Z,99.90
2018-09-05T08:59:26.035Z,99.90
2018-09-05T09:01:53.906Z,99.90
2018-09-05T09:04:21.831Z,98.00
2018-09-05T09:06:49.677Z,97.50
2018-09-05T09:09:17.490Z,96.40
2018-09-05T09:11:45.391Z,94.60
2018-09-05T09:14:13.170Z,91.40
2018-09-05T09:16:41.133Z,88.40
2018-09-05T09:19:09.031Z,84.40
2018-09-05T09:21:36.933Z,83.30
2018-09-05T09:24:04.974Z,80.00
2018-09-05T09:26:32.795Z,79.00
2018-09-05T09:29:00.670Z,78.10
2018-09-05T09:31:28.627Z,74.80
2018-09-05T09:33:56.482Z,72.40
2018-09-05T09:36:24.310Z,69.70
2018-09-05T09:38:52.235Z,69.20
2018-09-05T09:41:20.050Z,74.50
2018-09-05T09:43:48.589Z,70.50
2018-09-05T09:46:16.782Z,66.80
2018-09-05T09:48:44.768Z,58.80
2018-09-05T09:51:12.574Z,58.00
2018-09-05T09:53:40.396Z,55.90
2018-09-05T09:56:08.258Z,54.00
2018-09-05T09:58:36.141Z,51.60
2018-09-05T10:01:09.489Z,48.90
2018-09-05T10:03:43.069Z,46.80
2018-09-05T10:06:16.146Z,44.00
2018-09-05T10:08:49.684Z,41.80
2018-09-05T10:11:18.435Z,40.40
2018-09-05T10:13:51.666Z,39.70
2018-09-05T10:16:25.118Z,40.70
2018-09-05T10:18:53.550Z,40.40
2018-09-05T10:21:21.694Z,39.50
2018-09-05T10:23:49.795Z,38.80
2018-09-05T10:26:17.593Z,39.00
2018-09-05T10:28:45.480Z,39.30
2018-09-05T10:31:13.263Z,38.70
2018-09-05T10:33:41.142Z,39.50
2018-09-05T10:36:08.995Z,39.70
2018-09-05T10:38:36.781Z,40.20
2018-09-05T10:41:04.542Z,40.00
2018-09-05T10:43:32.146Z,39.60
2018-09-05T10:45:59.869Z,39.50
2018-09-05T10:48:27.435Z,40.20
2018-09-05T10:50:55.094Z,40.80
2018-09-05T10:53:22.684Z,40.80
2018-09-05T10:55:50.433Z,41.90
2018-09-05T10:58:18.169Z,42.80
2018-09-05T11:00:45.852Z,43.40
2018-09-05T11:03:13.529Z,43.70
2018-09-05T11:05:41.143Z,44.80
2018-09-05T11:08:08.731Z,45.60
2018-09-05T11:10:36.581Z,45.90
2018-09-05T11:13:04.301Z,45.90
2018-09-05T11:15:31.930Z,45.80
2018-09-05T11:17:59.554Z,46.10
2018-09-05T11:20:27.362Z,46.00
2018-09-05T11:22:55.018Z,45.70
2018-09-05T11:25:22.725Z,45.60
2018-09-05T11:27:50.359Z,45.40
2018-09-05T11:30:17.974Z,45.80
2018-09-05T11:32:45.550Z,46.20
2018-09-05T11:35:13.121Z,46.30
2018-09-05T11:37:40.821Z,46.30
2018-09-05T11:40:09.269Z,46.10
2018-09-05T11:42:36.885Z,46.10
2018-09-05T11:45:04.513Z,45.90
2018-09-05T11:47:32.302Z,45.20
2018-09-05T11:49:59.890Z,44.90
2018-09-05T11:52:27.480Z,45.10
2018-09-05T11:54:55.091Z,45.30
2018-09-05T11:57:22.671Z,45.70
2018-09-05T11:59:50.311Z,45.90
2018-09-05T12:02:17.974Z,45.70
2018-09-05T12:04:45.554Z,45.90
2018-09-05T12:07:13.186Z,45.70
2018-09-05T12:09:40.773Z,45.40
2018-09-05T12:12:08.735Z,46.10
2018-09-05T12:14:36.318Z,46.00
2018-09-05T12:17:04.018Z,46.30
2018-09-05T12:19:31.689Z,46.30
2018-09-05T12:21:59.374Z,45.70
2018-09-05T12:24:27.003Z,45.60
2018-09-05T12:26:54.665Z,46.40
2018-09-05T12:29:22.358Z,47.30
2018-09-05T12:31:49.985Z,47.80
2018-09-05T12:34:17.653Z,47.70
2018-09-05T12:36:45.275Z,48.10
2018-09-05T12:39:13.900Z,48.90
2018-09-05T12:41:42.207Z,49.50
2018-09-05T12:44:10.560Z,49.60
2018-09-05T12:46:38.447Z,49.80
2018-09-05T12:49:06.193Z,50.30
2018-09-05T12:51:33.861Z,50.20
2018-09-05T12:54:01.517Z,50.30
2018-09-05T12:56:29.192Z,50.20
2018-09-05T12:58:56.838Z,50.20
2018-09-05T13:01:24.548Z,47.90
2018-09-05T13:03:52.289Z,48.40
2018-09-05T13:06:19.900Z,48.10
2018-09-05T13:08:47.650Z,48.70
2018-09-05T13:11:15.473Z,49.70
2018-09-05T13:13:43.081Z,50.00
2018-09-05T13:16:10.672Z,49.70
2018-09-05T13:18:39.044Z,49.50
2018-09-05T13:21:06.629Z,48.50
2018-09-05T13:23:34.224Z,48.10
2018-09-05T13:26:01.866Z,48.50
2018-09-05T13:28:29.463Z,47.80
2018-09-05T13:30:57.069Z,47.30
2018-09-05T13:33:24.696Z,46.50
2018-09-05T13:35:52.412Z,46.60
2018-09-05T13:38:20.105Z,46.80
2018-09-05T13:40:47.741Z,46.40
2018-09-05T13:43:15.386Z,46.30
2018-09-05T13:45:43.142Z,46.50
2018-09-05T13:48:10.753Z,46.00
2018-09-05T13:50:38.458Z,46.30
2018-09-05T13:53:06.299Z,47.20
2018-09-05T13:55:33.937Z,47.80
2018-09-05T13:58:01.545Z,48.20
2018-09-05T14:00:29.206Z,48.60
2018-09-05T14:02:56.868Z,48.30
2018-09-05T14:05:24.508Z,47.40
2018-09-05T14:07:52.125Z,47.30
2018-09-05T14:10:19.760Z,47.00
2018-09-05T14:12:47.355Z,46.60
2018-09-05T14:15:15.743Z,46.90
2018-09-05T14:17:43.765Z,46.70
2018-09-05T14:20:11.398Z,47.00
2018-09-05T14:22:39.045Z,47.30
2018-09-05T14:25:06.705Z,47.20
2018-09-05T14:27:34.370Z,47.40
2018-09-05T14:30:02.006Z,47.40
2018-09-05T14:32:29.638Z,47.50
2018-09-05T14:34:57.373Z,47.20
2018-09-05T14:37:24.955Z,47.90
2018-09-05T14:39:52.624Z,47.60
2018-09-05T14:42:20.225Z,48.10
2018-09-05T14:44:47.834Z,47.50
2018-09-05T14:47:15.486Z,47.30
2018-09-05T14:49:43.130Z,47.50
2018-09-05T14:52:10.747Z,47.80
2018-09-05T14:54:38.355Z,48.10
2018-09-05T14:57:06.009Z,48.20
2018-09-05T14:59:33.641Z,48.50
2018-09-05T15:02:01.359Z,48.70
2018-09-05T15:04:28.961Z,49.10
2018-09-05T15:06:56.629Z,49.60
2018-09-05T15:09:24.458Z,49.30
2018-09-05T15:11:52.145Z,50.10
2018-09-05T15:14:22.651Z,51.00
2018-09-05T15:16:50.275Z,51.50
2018-09-05T15:19:17.945Z,52.00
2018-09-05T15:21:45.662Z,52.50
2018-09-05T15:24:13.340Z,54.10
2018-09-05T15:26:40.929Z,54.50
2018-09-05T15:29:08.491Z,54.80
2018-09-05T15:31:36.146Z,55.30
2018-09-05T15:34:03.730Z,57.50
2018-09-05T15:36:31.325Z,57.70
2018-09-05T15:38:59.039Z,59.00
2018-09-05T15:41:26.755Z,59.40
2018-09-05T15:43:54.406Z,60.80
2018-09-05T15:46:22.048Z,62.10
2018-09-05T15:48:49.690Z,63.10
2018-09-05T15:51:17.378Z,63.60
2018-09-05T15:53:45.096Z,64.70
2018-09-05T15:56:12.682Z,65.20
2018-09-05T15:58:40.403Z,65.30
2018-09-05T16:01:08.148Z,64.90
2018-09-05T16:03:35.792Z,65.60
2018-09-05T16:06:03.420Z,66.30
2018-09-05T16:08:31.055Z,67.60
2018-09-05T16:10:58.696Z,67.60
2018-09-05T16:13:26.284Z,66.80
2018-09-05T16:15:53.903Z,66.80
2018-09-05T16:18:21.522Z,66.90
2018-09-05T16:20:49.098Z,64.50
2018-09-05T16:23:16.895Z,64.80
2018-09-05T16:25:44.497Z,65.70
2018-09-05T16:28:12.143Z,66.60
2018-09-05T16:30:39.780Z,66.40
2018-09-05T16:33:07.429Z,64.90
2018-09-05T16:35:35.940Z,65.20
2018-09-05T16:38:03.794Z,65.70
2018-09-05T16:40:31.433Z,66.30
2018-09-05T16:42:59.075Z,68.40
2018-09-05T16:45:26.797Z,68.10
2018-09-05T16:47:54.461Z,68.80
2018-09-05T16:50:22.535Z,70.20
2018-09-05T16:52:50.156Z,71.50
2018-09-05T16:55:17.888Z,72.10
2018-09-05T16:57:45.474Z,73.50
2018-09-05T17:00:13.212Z,75.30
2018-09-05T17:02:40.804Z,77.20
2018-09-05T17:05:08.494Z,79.50
2018-09-05T17:07:36.114Z,81.00
2018-09-05T17:10:03.826Z,82.80
2018-09-05T17:12:31.421Z,84.30
2018-09-05T17:14:59.117Z,85.30
2018-09-05T17:17:26.738Z,86.80
2018-09-05T17:19:54.828Z,88.40
2018-09-05T17:22:22.632Z,90.10
2018-09-05T17:24:50.262Z,90.50
2018-09-05T17:27:18.020Z,91.20
2018-09-05T17:29:45.627Z,91.80
2018-09-05T17:32:13.276Z,92.00
2018-09-05T17:34:40.945Z,92.60
2018-09-05T17:37:08.598Z,93.00
2018-09-05T17:39:36.221Z,93.50
2018-09-05T17:42:03.884Z,94.10
2018-09-05T17:44:31.522Z,95.00
2018-09-05T17:46:59.575Z,95.10
2018-09-05T17:49:27.187Z,95.50
2018-09-05T17:51:54.868Z,96.10
2018-09-05T17:54:22.844Z,96.60
2018-09-05T17:56:50.625Z,97.20
2018-09-05T17:59:18.216Z,97.70
2018-09-05T18:01:45.949Z,98.10
2018-09-05T18:04:13.593Z,98.30
2018-09-05T18:06:41.214Z,98.00
2018-09-05T18:09:09.738Z,97.90
2018-09-05T18:11:37.373Z,97.70
2018-09-05T18:14:05.103Z,97.50
2018-09-05T18:16:32.769Z,97.80
2018-09-05T18:19:00.804Z,97.40
2018-09-05T18:21:28.748Z,97.00
2018-09-05T18:23:57.187Z,96.60
2018-09-05T18:26:24.795Z,96.20
2018-09-05T18:28:52.552Z,95.30
2018-09-05T18:31:20.215Z,95.10
2018-09-05T18:33:47.863Z,95.10
2018-09-05T18:36:15.508Z,94.90
2018-09-05T18:38:43.140Z,94.90
2018-09-05T18:41:10.842Z,94.60
2018-09-05T18:43:38.535Z,94.60
2018-09-05T18:46:06.233Z,94.70
2018-09-05T18:48:33.905Z,94.70
2018-09-05T18:51:01.940Z,95.00
2018-09-05T18:53:29.544Z,95.20
2018-09-05T18:55:57.445Z,95.50
2018-09-05T18:58:25.092Z,95.90
2018-09-05T19:00:52.810Z,96.30
2018-09-05T19:03:20.448Z,96.60
2018-09-05T19:05:48.066Z,96.70
2018-09-05T19:08:15.684Z,96.70
2018-09-05T19:10:43.324Z,97.40
2018-09-05T19:13:10.998Z,97.90
2018-09-05T19:15:38.602Z,98.40
2018-09-05T19:18:06.234Z,98.60
2018-09-05T19:20:33.842Z,98.70
2018-09-05T19:23:01.676Z,98.90
2018-09-05T19:25:29.342Z,99.20
2018-09-05T19:27:56.947Z,99.60
2018-09-05T19:30:24.598Z,99.90
2018-09-05T19:32:52.232Z,99.90
2018-09-05T19:35:19.917Z,99.90
2018-09-05T19:37:47.617Z,99.90
2018-09-05T19:40:15.225Z,99.90
2018-09-05T19:42:42.936Z,99.90
2018-09-05T19:45:10.538Z,99.90
2018-09-05T19:47:38.145Z,99.90
2018-09-05T19:50:06.118Z,99.90
2018-09-05T19:52:34.195Z,99.90
2018-09-05T19:55:01.866Z,99.90
2018-09-05T19:57:29.605Z,99.90
2018-09-05T19:59:57.258Z,99.90
2018-09-05T20:02:25.000Z,99.90
2018-09-05T20:04:52.754Z,99.90
2018-09-05T20:07:20.425Z,99.90
2018-09-05T20:09:48.317Z,99.90
2018-09-05T20:12:15.895Z,99.90
2018-09-05T20:14:43.522Z,99.90
2018-09-05T20:17:11.198Z,99.90
2018-09-05T20:19:39.366Z,99.90
2018-09-05T20:22:08.983Z,99.90
2018-09-05T20:24:36.832Z,99.90
2018-09-05T20:27:05.008Z,99.90
2018-09-05T20:29:32.682Z,99.90
2018-09-05T20:32:00.463Z,99.90
2018-09-05T20:34:29.002Z,99.90
2018-09-05T20:36:57.065Z,99.90
2018-09-05T20:39:24.731Z,99.90
2018-09-05T20:41:52.422Z,99.90
2018-09-05T20:44:20.017Z,99.90
2018-09-05T20:46:47.649Z,99.90
2018-09-05T20:49:15.220Z,99.90
2018-09-05T20:51:42.766Z,99.90
2018-09-05T20:54:10.426Z,99.90
2018-09-05T20:56:38.103Z,99.90
2018-09-05T20:59:05.937Z,99.90
2018-09-05T21:01:34.165Z,99.90
2018-09-05T21:04:01.743Z,99.90
2018-09-05T21:06:29.353Z,99.90
2018-09-05T21:08:56.965Z,99.90
2018-09-05T21:11:24.594Z,99.90
2018-09-05T21:13:52.225Z,99.90
2018-09-05T21:16:19.908Z,99.90
2018-09-05T21:18:47.540Z,99.90
2018-09-05T21:21:15.216Z,99.90
2018-09-05T21:23:42.780Z,99.90
2018-09-05T21:26:10.419Z,99.90
2018-09-05T21:28:38.038Z,99.90
2018-09-05T21:31:05.701Z,99.90
2018-09-05T21:33:33.305Z,99.90
2018-09-05T21:36:00.884Z,99.90
2018-09-05T21:38:28.490Z,99.90
2018-09-05T21:40:56.158Z,99.90
2018-09-05T21:43:23.797Z,99.90
2018-09-05T21:45:51.443Z,99.90
2018-09-05T21:48:19.124Z,99.90
2018-09-05T21:50:46.693Z,99.90
2018-09-05T21:53:14.353Z,99.90
2018-09-05T21:55:41.994Z,99.90
2018-09-05T21:58:09.649Z,99.90
2018-09-05T22:00:37.329Z,99.90
2018-09-05T22:03:05.093Z,99.90
2018-09-05T22:05:32.705Z,99.90
2018-09-05T22:08:00.312Z,99.90
2018-09-05T22:10:27.958Z,99.90
2018-09-05T22:12:55.632Z,99.90
2018-09-05T22:15:23.282Z,99.90
2018-09-05T22:17:50.873Z,99.90
2018-09-05T22:20:18.518Z,99.90
2018-09-05T22:22:46.118Z,99.90
2018-09-05T22:25:13.745Z,99.90
2018-09-05T22:27:41.490Z,99.90
2018-09-05T22:30:09.079Z,99.90
2018-09-05T22:32:36.729Z,99.90
2018-09-05T22:35:04.623Z,99.90
2018-09-05T22:37:32.253Z,99.90
2018-09-05T22:39:59.905Z,99.90
2018-09-05T22:42:27.570Z,99.90
2018-09-05T22:46:10.216Z,99.90
2018-09-05T22:49:53.286Z,99.90
2018-09-05T22:54:44.137Z,99.90
2018-09-05T22:58:29.518Z,99.90
2018-09-05T23:03:12.666Z,99.90
2018-09-05T23:05:51.650Z,99.90
2018-09-05T23:08:32.276Z,99.90
2018-09-05T23:11:11.307Z,99.90
2018-09-05T23:13:50.271Z,99.90
2018-09-05T23:16:29.127Z,99.90
2018-09-05T23:19:36.111Z,99.90
2018-09-05T23:22:03.762Z,99.90
2018-09-05T23:24:31.332Z,99.90
2018-09-05T23:26:59.002Z,99.90
2018-09-05T23:29:26.618Z,99.90
2018-09-05T23:31:54.231Z,99.90
2018-09-05T23:34:21.863Z,99.90
2018-09-05T23:36:49.510Z,99.90
2018-09-05T23:39:17.137Z,99.90
2018-09-05T23:41:44.729Z,99.90
2018-09-05T23:44:12.323Z,99.90
2018-09-05T23:46:39.936Z,99.90
2018-09-05T23:49:07.627Z,99.90
2018-09-05T23:51:36.175Z,99.90
2018-09-05T23:54:03.769Z,99.90
2018-09-05T23:56:31.489Z,99.90
2018-09-05T23:59:03.596Z,99.90
